Time;durP1;ratioP1;P1;durP2;ratioP2;P2;SDS_P1;SDS_P2;PMS_P1;PMS_P2;Temp;Humidity;BMP_temperature;BMP_pressure;BME280_temperature;BME280_humidity;BME280_pressure;Samples;Min_cycle;Max_cycle;Signal;HPM_P1;HPM_P2
2023/10/07 00:02:59;;;;;;;3.33;2.20;;;20.80;89.20;;;;;;10267065;28;20288;-86
2023/10/07 00:08:19;;;;;;;4.13;2.60;;;21.00;90.70;;;;;;10285388;28;20249;-87
2023/10/07 00:13:23;;;;;;;3.13;1.95;;;20.80;88.30;;;;;;10276411;28;20285;-86
2023/10/07 00:18:26;;;;;;;3.20;2.38;;;20.90;86.30;;;;;;10253103;28;20242;-87
2023/10/07 00:23:29;;;;;;;3.55;1.95;;;21.00;88.80;;;;;;10306151;28;20284;-86
2023/10/07 00:33:50;;;;;;;3.15;2.42;;;20.90;88.10;;;;;;10282862;28;20298;-86
2023/10/07 00:38:54;;;;;;;2.58;1.73;;;20.80;89.50;;;;;;10290651;28;20291;-87
2023/10/07 00:44:07;;;;;;;1.45;1.20;;;20.90;88.30;;;;;;10291398;28;20245;-86
2023/10/07 00:49:20;;;;;;;2.88;2.50;;;20.60;86.40;;;;;;10290546;28;20265;-86
2023/10/07 00:54:44;;;;;;;4.50;2.55;;;20.60;90.30;;;;;;10287327;28;20718;-86
2023/10/07 00:59:50;;;;;;;1.92;1.70;;;20.70;86.10;;;;;;10284001;28;20304;-87
2023/10/07 01:04:53;;;;;;;2.67;2.10;;;20.70;88.50;;;;;;10279983;28;20253;-87
2023/10/07 01:15:22;;;;;;;6.03;1.88;;;20.70;86.90;;;;;;10289035;28;20256;-86
2023/10/07 01:20:34;;;;;;;4.32;3.03;;;21.10;84.30;;;;;;10261687;28;20237;-87
2023/10/07 01:25:44;;;;;;;3.92;2.13;;;20.90;80.40;;;;;;10304725;28;20241;-85
2023/10/07 01:31:12;;;;;;;2.00;1.27;;;20.80;84.90;;;;;;10286821;28;20244;-86
2023/10/07 01:36:19;;;;;;;2.30;0.95;;;20.80;87.50;;;;;;10271082;28;20676;-86
2023/10/07 01:41:27;;;;;;;2.22;1.92;;;21.00;88.40;;;;;;10271055;28;20260;-87
2023/10/07 01:46:32;;;;;;;3.97;2.20;;;20.90;86.50;;;;;;10271583;28;20316;-87
2023/10/07 01:51:36;;;;;;;3.80;2.30;;;20.90;85.80;;;;;;10258736;28;20644;-87
2023/10/07 01:56:39;;;;;;;2.95;2.15;;;20.70;84.80;;;;;;10269908;28;20257;-87
2023/10/07 02:01:43;;;;;;;3.25;2.17;;;20.80;87.10;;;;;;10286661;28;20966;-87
2023/10/07 02:06:51;;;;;;;3.35;2.20;;;20.70;87.80;;;;;;10286331;28;20245;-87
2023/10/07 02:12:09;;;;;;;2.93;1.70;;;20.50;82.60;;;;;;10287057;28;20237;-87
2023/10/07 02:17:12;;;;;;;2.85;1.42;;;20.80;82.60;;;;;;10284344;28;20291;-87
2023/10/07 02:22:28;;;;;;;2.22;1.38;;;21.10;81.80;;;;;;10264502;28;20691;-87
2023/10/07 02:27:43;;;;;;;4.90;1.45;;;20.90;79.20;;;;;;10284742;28;20702;-87
2023/10/07 02:32:49;;;;;;;4.30;1.83;;;20.80;79.70;;;;;;10286970;28;20257;-87
2023/10/07 02:37:51;;;;;;;5.07;1.88;;;21.10;78.60;;;;;;10284355;28;20261;-87
2023/10/07 02:42:54;;;;;;;11.20;2.28;;;21.10;74.60;;;;;;10268659;28;20241;-87
2023/10/07 02:48:01;;;;;;;2.83;1.83;;;21.00;75.40;;;;;;10263082;28;20730;-87
2023/10/07 02:53:11;;;;;;;3.72;2.13;;;21.10;76.00;;;;;;10265224;28;20671;-87
2023/10/07 03:03:48;;;;;;;2.78;1.85;;;21.10;75.20;;;;;;10264833;28;20281;-87
2023/10/07 03:09:00;;;;;;;3.65;2.25;;;21.00;74.30;;;;;;10277833;28;20631;-86
2023/10/07 03:14:03;;;;;;;6.13;2.83;;;21.00;74.40;;;;;;10266449;28;20408;-87
2023/10/07 03:19:06;;;;;;;4.15;2.80;;;20.70;75.10;;;;;;10266913;28;20292;-87
2023/10/07 03:24:11;;;;;;;3.95;2.10;;;20.60;76.30;;;;;;10272560;28;20341;-87
2023/10/07 03:29:30;;;;;;;2.15;1.88;;;20.60;77.30;;;;;;10266377;28;20340;-87
2023/10/07 03:34:32;;;;;;;4.40;2.42;;;20.70;79.00;;;;;;10268866;28;20240;-87
2023/10/07 03:44:56;;;;;;;3.05;2.47;;;20.80;78.10;;;;;;10273735;28;20288;-87
2023/10/07 03:49:59;;;;;;;4.85;1.83;;;20.40;80.50;;;;;;10272732;28;20339;-86
2023/10/07 03:55:02;;;;;;;3.90;2.08;;;20.40;81.30;;;;;;10270730;28;20348;-87
2023/10/07 04:00:10;;;;;;;2.35;2.03;;;20.70;80.80;;;;;;10273742;28;20479;-86
2023/10/07 04:05:14;;;;;;;4.10;2.10;;;20.70;80.90;;;;;;10270683;28;22025;-87
2023/10/07 04:15:29;;;;;;;1.65;1.50;;;20.80;80.00;;;;;;10272685;28;20304;-86
2023/10/07 04:26:08;;;;;;;3.00;2.13;;;20.70;81.40;;;;;;10146935;29;20324;-87
2023/10/07 04:31:11;;;;;;;2.47;1.50;;;20.60;81.20;;;;;;10142518;29;20341;-86
2023/10/07 04:36:18;;;;;;;2.75;2.15;;;20.60;81.60;;;;;;10143219;29;20270;-87
2023/10/07 04:46:42;;;;;;;5.10;2.03;;;20.70;79.60;;;;;;10145029;29;20298;-87
2023/10/07 04:56:53;;;;;;;3.67;2.35;;;20.90;80.50;;;;;;10144091;29;20310;-87
2023/10/07 05:02:01;;;;;;;5.25;1.80;;;21.00;79.20;;;;;;10240806;28;20285;-87
2023/10/07 05:07:04;;;;;;;2.63;1.80;;;20.80;80.80;;;;;;10272729;28;20338;-87
2023/10/07 05:12:07;;;;;;;3.33;1.67;;;20.60;82.80;;;;;;10268964;28;20305;-87
2023/10/07 05:17:11;;;;;;;2.28;1.90;;;20.70;82.30;;;;;;10269783;28;20353;-87
2023/10/07 05:22:18;;;;;;;3.25;1.85;;;20.80;82.60;;;;;;10267474;28;20661;-87
2023/10/07 05:27:21;;;;;;;2.95;2.05;;;20.80;81.10;;;;;;10267406;28;20658;-86
2023/10/07 05:32:25;;;;;;;5.05;1.70;;;20.60;82.00;;;;;;10269346;28;20284;-87
2023/10/07 05:37:29;;;;;;;5.45;1.42;;;20.80;81.00;;;;;;10283133;28;20671;-87
2023/10/07 05:42:32;;;;;;;4.25;2.60;;;20.80;81.20;;;;;;10269126;28;20286;-87
2023/10/07 05:47:34;;;;;;;3.35;2.17;;;20.70;81.90;;;;;;10265457;28;20286;-87
2023/10/07 05:52:39;;;;;;;3.40;2.22;;;20.90;83.90;;;;;;10268857;28;20301;-87
2023/10/07 05:57:42;;;;;;;7.85;2.30;;;20.80;84.20;;;;;;10269287;28;20669;-87
2023/10/07 06:02:44;;;;;;;4.75;2.22;;;20.80;84.10;;;;;;10257912;28;20288;-87
2023/10/07 06:07:47;;;;;;;1.80;1.60;;;20.90;84.90;;;;;;10265457;28;20364;-87
2023/10/07 06:12:53;;;;;;;2.83;1.98;;;20.90;85.90;;;;;;10269928;28;20739;-87
2023/10/07 06:17:56;;;;;;;2.67;1.90;;;20.90;85.10;;;;;;10278368;28;20319;-86
2023/10/07 06:22:58;;;;;;;2.63;1.83;;;21.00;84.80;;;;;;10265237;28;20230;-85
2023/10/07 06:28:04;;;;;;;3.40;2.28;;;21.00;86.20;;;;;;10296583;28;20268;-84
2023/10/07 06:33:12;;;;;;;2.25;1.67;;;21.00;85.20;;;;;;10287725;28;20237;-84
2023/10/07 06:38:19;;;;;;;1.55;1.45;;;21.10;84.00;;;;;;10279217;28;20233;-85
2023/10/07 06:43:22;;;;;;;9.38;1.67;;;21.50;81.70;;;;;;10287723;28;20693;-85
2023/10/07 06:48:27;;;;;;;1.65;1.27;;;21.20;81.30;;;;;;10282579;28;20721;-85
2023/10/07 06:53:31;;;;;;;2.97;1.75;;;21.50;81.70;;;;;;10276876;28;20261;-84
2023/10/07 06:58:35;;;;;;;2.55;1.85;;;21.60;81.70;;;;;;10285886;28;20634;-84
2023/10/07 07:03:38;;;;;;;4.78;1.75;;;21.70;80.50;;;;;;10269668;28;20291;-84
2023/10/07 07:08:40;;;;;;;4.32;2.00;;;21.60;80.50;;;;;;10271204;28;20706;-85
2023/10/07 07:13:44;;;;;;;3.80;2.30;;;21.70;81.30;;;;;;10278228;28;20303;-85
2023/10/07 07:18:46;;;;;;;2.13;1.52;;;21.40;82.00;;;;;;10263142;28;20241;-85
2023/10/07 07:23:50;;;;;;;3.35;1.80;;;21.40;84.90;;;;;;10265081;28;20642;-84
2023/10/07 07:28:56;;;;;;;3.70;1.98;;;21.30;85.20;;;;;;10280762;28;20307;-84
2023/10/07 07:34:23;;;;;;;1.95;1.50;;;21.60;84.70;;;;;;10260925;28;20749;-84
2023/10/07 07:39:22;;;;;;;2.58;1.92;;;21.70;84.40;;;;;;10284463;28;20299;-85
2023/10/07 07:44:34;;;;;;;3.05;1.88;;;21.70;83.20;;;;;;10284859;28;20292;-85
2023/10/07 07:49:39;;;;;;;5.72;1.48;;;21.50;82.90;;;;;;10285548;28;20605;-86
2023/10/07 07:54:42;;;;;;;8.00;2.97;;;21.40;84.60;;;;;;10300217;28;20653;-85
2023/10/07 07:59:45;;;;;;;3.92;2.40;;;21.50;83.90;;;;;;10286381;28;20230;-85
2023/10/07 08:04:48;;;;;;;3.42;2.03;;;20.90;87.60;;;;;;10284057;28;20300;-86
2023/10/07 08:09:57;;;;;;;3.67;2.70;;;20.70;89.20;;;;;;10257078;28;20230;-85
2023/10/07 08:20:33;;;;;;;3.85;1.50;;;20.20;91.80;;;;;;10299830;28;20291;-86
2023/10/07 08:25:45;;;;;;;6.60;3.45;;;20.30;92.10;;;;;;10272160;28;20233;-86
2023/10/07 08:30:49;;;;;;;6.00;3.33;;;20.00;92.90;;;;;;10290835;28;20245;-86
2023/10/07 08:35:51;;;;;;;6.93;3.70;;;18.40;99.90;;;;;;10287842;28;20325;-86
2023/10/07 08:41:05;;;;;;;11.25;2.67;;;17.40;99.90;;;;;;10289583;28;20253;-84
2023/10/07 08:46:11;;;;;;;4.80;3.33;;;17.30;99.90;;;;;;10274990;28;20288;-84
2023/10/07 08:51:14;;;;;;;5.15;3.08;;;18.50;99.90;;;;;;10278207;28;20229;-85
2023/10/07 08:56:20;;;;;;;6.65;3.35;;;18.90;99.90;;;;;;10278202;28;20260;-86
2023/10/07 09:01:24;;;;;;;5.15;4.10;;;18.80;99.90;;;;;;10302697;28;20288;-84
2023/10/07 09:06:33;;;;;;;5.65;2.58;;;18.80;99.90;;;;;;10278898;28;20284;-84
2023/10/07 09:11:37;;;;;;;2.72;2.42;;;18.60;99.90;;;;;;10289849;28;20841;-85
2023/10/07 09:16:42;;;;;;;5.53;2.90;;;18.10;99.90;;;;;;10289563;28;20265;-84
2023/10/07 09:21:51;;;;;;;3.03;2.38;;;18.30;99.90;;;;;;10288818;28;20226;-84
2023/10/07 09:26:57;;;;;;;2.35;1.35;;;18.20;99.90;;;;;;10290030;28;20295;-84
2023/10/07 09:49:33;;;;;;;2.55;1.38;;;17.60;99.90;;;;;;11127587;23;20721;-83
2023/10/07 09:54:55;;;;;;;2.08;1.38;;;17.80;99.90;;;;;;10363429;28;20240;-83
2023/10/07 10:00:38;;;;;;;0.98;0.40;;;17.50;99.90;;;;;;10359949;28;20239;-83
2023/10/07 10:06:25;;;;;;;2.72;0.52;;;17.90;99.90;;;;;;10389668;28;20753;-84
2023/10/07 10:11:47;;;;;;;0.40;0.30;;;18.10;99.60;;;;;;10381852;28;20259;-83
2023/10/07 10:16:53;;;;;;;0.52;0.25;;;17.70;99.90;;;;;;10392819;28;20196;-84
2023/10/07 10:22:10;;;;;;;0.82;0.50;;;17.50;99.90;;;;;;10396356;28;20197;-84
2023/10/07 10:27:17;;;;;;;0.70;0.45;;;17.40;99.90;;;;;;10379793;28;20218;-84
2023/10/07 10:32:30;;;;;;;1.80;0.47;;;17.30;99.90;;;;;;10398823;28;20228;-83
2023/10/07 10:37:34;;;;;;;2.45;0.57;;;17.40;99.90;;;;;;10398350;28;20236;-84
2023/10/07 10:42:47;;;;;;;2.45;0.73;;;17.30;99.90;;;;;;10362584;28;20205;-83
2023/10/07 10:47:52;;;;;;;2.42;1.13;;;17.50;99.90;;;;;;10367934;28;20232;-84
2023/10/07 10:52:56;;;;;;;3.67;1.08;;;17.40;99.90;;;;;;9996482;28;10000266;-84
2023/10/07 10:58:00;;;;;;;3.72;0.50;;;17.30;99.90;;;;;;10331182;28;20425;-84
2023/10/07 11:03:03;;;;;;;6.78;1.90;;;17.40;99.90;;;;;;10312262;28;20245;-84
2023/10/07 11:08:07;;;;;;;2.55;0.85;;;17.40;99.90;;;;;;10322699;28;20202;-82
2023/10/07 11:27:38;;;;;;;2.88;0.75;;;17.40;99.90;;;;;;10160784;27;10002041;-86
2023/10/07 11:32:43;;;;;;;1.70;0.70;;;17.10;99.90;;;;;;10520914;28;20683;-86
2023/10/07 11:37:58;;;;;;;2.45;0.70;;;17.30;99.90;;;;;;10521821;28;20233;-86
2023/10/07 11:56:11;;;;;;;2.22;1.20;;;17.20;99.90;;;;;;12740164;22;1316494;-85
2023/10/07 12:01:17;;;;;;;2.15;0.93;;;17.50;99.90;;;;;;12740957;23;20226;-84
2023/10/07 12:06:20;;;;;;;1.00;0.35;;;17.40;99.90;;;;;;12757368;23;20677;-85
2023/10/07 12:11:23;;;;;;;1.88;0.80;;;17.40;99.90;;;;;;12811006;23;20209;-84
2023/10/07 12:16:25;;;;;;;1.70;0.82;;;17.60;99.90;;;;;;12808463;23;20218;-84
2023/10/07 12:21:28;;;;;;;1.85;0.60;;;17.50;99.90;;;;;;12807918;23;20179;-84
2023/10/07 12:26:31;;;;;;;1.58;0.70;;;17.40;99.90;;;;;;12781656;23;20179;-84
2023/10/07 12:31:35;;;;;;;5.03;2.17;;;17.40;99.90;;;;;;12826024;23;20474;-84
2023/10/07 12:36:38;;;;;;;2.03;1.02;;;17.60;99.90;;;;;;12781119;23;20175;-84
2023/10/07 12:41:41;;;;;;;3.08;1.52;;;17.50;99.90;;;;;;12808555;23;20223;-84
2023/10/07 12:46:44;;;;;;;4.32;1.13;;;17.70;99.90;;;;;;12804110;23;20202;-84
2023/10/07 12:51:47;;;;;;;3.28;1.40;;;17.60;99.90;;;;;;12807526;23;20171;-84
2023/10/07 12:56:50;;;;;;;1.90;0.82;;;17.80;99.90;;;;;;12791945;23;20180;-84
2023/10/07 13:01:56;;;;;;;2.75;1.38;;;17.70;99.90;;;;;;12792145;23;20257;-84
2023/10/07 13:07:03;;;;;;;1.40;0.75;;;17.80;99.90;;;;;;12766608;23;20207;-84
2023/10/07 13:12:15;;;;;;;3.78;1.42;;;17.70;99.90;;;;;;12812201;23;20160;-84
2023/10/07 13:17:18;;;;;;;1.90;1.00;;;17.40;99.90;;;;;;12785162;23;20611;-84
2023/10/07 13:22:23;;;;;;;1.73;0.80;;;17.60;99.90;;;;;;12792120;23;20806;-84
2023/10/07 13:27:26;;;;;;;3.60;1.30;;;17.80;99.90;;;;;;12793102;23;20167;-85
2023/10/07 13:32:29;;;;;;;2.00;1.25;;;17.80;99.80;;;;;;12765884;23;20175;-84
2023/10/07 13:37:32;;;;;;;1.75;1.10;;;17.90;99.80;;;;;;12790545;23;20566;-84
2023/10/07 13:42:35;;;;;;;7.85;3.17;;;17.80;99.90;;;;;;12791019;23;20215;-84
2023/10/07 13:47:38;;;;;;;5.00;2.35;;;17.50;99.90;;;;;;12789690;23;20175;-84
2023/10/07 13:52:50;;;;;;;5.22;2.88;;;17.30;99.90;;;;;;12764645;23;20188;-84
2023/10/07 13:57:57;;;;;;;5.63;4.93;;;17.20;99.90;;;;;;12767023;23;20230;-86
2023/10/07 14:03:00;;;;;;;5.57;3.97;;;17.80;99.90;;;;;;12767008;23;20195;-86
2023/10/07 14:08:11;;;;;;;7.80;4.35;;;18.00;99.90;;;;;;12791502;23;20239;-86
2023/10/07 14:13:15;;;;;;;7.57;4.70;;;17.80;99.90;;;;;;12792618;23;20179;-86
2023/10/07 14:18:22;;;;;;;2.22;1.70;;;17.70;99.90;;;;;;12791784;23;20526;-86
2023/10/07 14:23:26;;;;;;;5.88;4.10;;;17.50;99.90;;;;;;12791987;23;20214;-86
2023/10/07 14:28:29;;;;;;;3.40;2.40;;;17.30;99.90;;;;;;12811857;23;20230;-86
2023/10/07 14:33:32;;;;;;;4.22;2.95;;;17.20;99.90;;;;;;12811477;23;20195;-86
2023/10/07 14:38:35;;;;;;;6.60;3.85;;;17.20;99.90;;;;;;12791936;23;20183;-86
2023/10/07 14:43:37;;;;;;;4.47;2.88;;;17.30;99.90;;;;;;12765982;23;20199;-87
2023/10/07 14:48:42;;;;;;;2.45;2.03;;;17.30;99.90;;;;;;12767508;23;20164;-87
2023/10/07 14:53:46;;;;;;;2.83;2.53;;;17.30;99.90;;;;;;12767320;23;20230;-87
2023/10/07 14:58:50;;;;;;;3.78;2.90;;;17.20;99.90;;;;;;12792179;23;20231;-88
2023/10/07 15:03:54;;;;;;;3.10;2.25;;;17.30;99.90;;;;;;12766300;23;20254;-89
2023/10/07 15:08:57;;;;;;;5.63;4.43;;;17.10;99.90;;;;;;12765600;23;20273;-88
2023/10/07 15:14:02;;;;;;;4.93;1.52;;;17.00;99.90;;;;;;12793136;23;20171;-88
2023/10/07 15:19:05;;;;;;;2.63;2.00;;;16.70;99.90;;;;;;12793152;23;20271;-89
2023/10/07 15:24:08;;;;;;;5.18;2.10;;;16.70;99.90;;;;;;12790914;23;20250;-88
2023/10/07 15:29:10;;;;;;;1.25;0.80;;;16.20;99.90;;;;;;12810112;23;20517;-89
2023/10/07 15:34:14;;;;;;;3.70;1.88;;;16.00;99.90;;;;;;12791280;23;20554;-89
2023/10/07 15:39:17;;;;;;;3.53;2.15;;;15.50;99.90;;;;;;12791287;23;20624;-89
2023/10/07 15:44:20;;;;;;;2.45;1.13;;;15.70;99.90;;;;;;12765232;23;20585;-89
2023/10/07 15:49:22;;;;;;;2.40;1.40;;;15.40;99.90;;;;;;12765302;23;20253;-88
2023/10/07 15:54:25;;;;;;;3.20;1.55;;;15.30;99.90;;;;;;12809857;23;20191;-88
2023/10/07 15:59:28;;;;;;;3.60;2.08;;;15.20;99.90;;;;;;12792291;23;20168;-88
2023/10/07 16:04:33;;;;;;;3.00;2.05;;;15.30;99.90;;;;;;12790640;23;20298;-87
2023/10/07 16:15:21;;;;;;;2.53;1.80;;;15.50;99.90;;;;;;12712143;23;20253;-88
2023/10/07 16:20:24;;;;;;;1.75;0.80;;;13.20;99.90;;;;;;12761410;23;20215;-87
2023/10/07 16:25:28;;;;;;;3.75;1.40;;;12.80;99.90;;;;;;12760160;23;20200;-87
2023/10/07 16:30:31;;;;;;;2.55;1.20;;;12.70;99.90;;;;;;12758285;23;20220;-87
2023/10/07 16:35:34;;;;;;;3.10;1.27;;;12.50;99.90;;;;;;12759047;23;20175;-87
2023/10/07 16:40:42;;;;;;;8.17;1.80;;;12.20;99.90;;;;;;12762695;23;20172;-89
2023/10/07 16:45:44;;;;;;;3.50;1.47;;;11.90;99.90;;;;;;12764602;23;20600;-88
2023/10/07 16:50:54;;;;;;;3.17;1.40;;;11.70;99.90;;;;;;12791778;23;20222;-88
2023/10/07 16:56:05;;;;;;;4.37;1.43;;;11.50;99.90;;;;;;12762726;23;20191;-89
2023/10/07 17:01:09;;;;;;;5.27;2.67;;;11.40;99.90;;;;;;12788877;23;20179;-88
2023/10/07 17:06:12;;;;;;;6.50;2.50;;;11.50;99.90;;;;;;12763495;23;20194;-88
2023/10/07 17:11:17;;;;;;;6.80;2.63;;;11.60;99.90;;;;;;12763006;23;20175;-88
2023/10/07 17:16:20;;;;;;;3.87;2.23;;;11.40;99.90;;;;;;12789434;23;20522;-88
2023/10/07 17:21:25;;;;;;;5.90;1.70;;;;;;;;;;12790596;23;20175;-88
2023/10/07 17:26:28;;;;;;;5.67;2.37;;;;;;;;;;12789637;23;20238;-88
2023/10/07 17:31:44;;;;;;;9.77;2.30;;;;;;;;;;12751361;23;20257;-88
2023/10/07 17:36:48;;;;;;;5.60;2.17;;;;;;;;;;12788880;23;20667;-87
2023/10/07 17:41:51;;;;;;;12.43;5.13;;;;;;;;;;12787764;23;20222;-87
2023/10/07 17:46:55;;;;;;;8.60;2.33;;;;;;;;;;12788670;23;20191;-87
2023/10/07 17:51:59;;;;;;;6.67;2.13;;;10.10;99.90;;;;;;12786566;23;20257;-87
2023/10/07 17:57:02;;;;;;;7.17;2.47;;;;;;;;;;12790886;23;20218;-87
2023/10/07 18:02:06;;;;;;;6.03;3.03;;;;;;;;;;12791042;23;20700;-87
2023/10/07 18:07:10;;;;;;;15.27;9.30;;;;;;;;;;12765686;23;20177;-86
2023/10/07 18:12:14;;;;;;;11.63;5.50;;;;;;;;;;12790929;23;20214;-86
2023/10/07 18:17:17;;;;;;;5.03;3.17;;;;;;;;;;12792594;23;20172;-86
2023/10/07 18:22:20;;;;;;;5.47;2.47;;;;;;;;;;12790612;23;20199;-85
2023/10/07 18:27:23;;;;;;;5.33;3.23;;;;;;;;;;12793330;23;20192;-85
2023/10/07 18:32:26;;;;;;;7.77;2.53;;;;;;;;;;12765330;23;20208;-86
2023/10/07 18:37:29;;;;;;;8.67;3.73;;;;;;;;;;12794141;23;20226;-87
2023/10/07 18:42:32;;;;;;;9.97;4.13;;;10.50;99.90;;;;;;12790920;23;20188;-87
2023/10/07 18:47:35;;;;;;;9.07;5.43;;;;;;;;;;12771769;23;20700;-86
2023/10/07 18:52:38;;;;;;;8.13;4.20;;;11.00;99.90;;;;;;12790140;23;20179;-86
2023/10/07 18:57:41;;;;;;;4.37;2.60;;;11.30;99.90;;;;;;12793081;23;20168;-86
2023/10/07 19:02:44;;;;;;;6.33;3.30;;;12.10;99.90;;;;;;12793182;23;20238;-86
2023/10/07 19:07:47;;;;;;;10.05;6.07;;;12.40;99.90;;;;;;12766067;23;20175;-87
2023/10/07 19:12:50;;;;;;;5.00;3.58;;;12.50;99.90;;;;;;12791563;23;20179;-87
2023/10/07 19:17:52;;;;;;;7.40;4.97;;;13.10;99.90;;;;;;12791244;23;20667;-87
2023/10/07 19:22:55;;;;;;;5.35;3.00;;;13.80;99.90;;;;;;12790108;23;20243;-87
2023/10/07 19:27:58;;;;;;;6.53;2.97;;;14.20;99.90;;;;;;12763981;23;20226;-88
2023/10/07 19:33:00;;;;;;;8.30;3.25;;;14.60;99.90;;;;;;12791323;23;20192;-87
2023/10/07 19:38:03;;;;;;;8.45;2.72;;;15.10;99.90;;;;;;12791335;23;20230;-87
2023/10/07 19:43:07;;;;;;;5.07;2.15;;;15.20;99.90;;;;;;12791325;23;20261;-87
2023/10/07 19:48:09;;;;;;;6.43;3.50;;;14.10;99.90;;;;;;12791777;23;20199;-87
2023/10/07 19:53:13;;;;;;;7.85;3.53;;;14.50;99.90;;;;;;12790317;23;20180;-88
2023/10/07 19:58:16;;;;;;;4.65;2.85;;;13.80;99.90;;;;;;12760429;23;20242;-88
2023/10/07 20:03:19;;;;;;;4.97;3.15;;;14.80;99.90;;;;;;12791486;23;20184;-88
2023/10/07 20:08:26;;;;;;;4.90;2.75;;;14.60;99.90;;;;;;12768098;23;20627;-88
2023/10/07 20:13:28;;;;;;;4.13;2.13;;;14.40;99.90;;;;;;12793616;23;20203;-88
2023/10/07 20:18:31;;;;;;;3.88;3.22;;;14.70;99.90;;;;;;12792541;23;20184;-88
2023/10/07 20:23:34;;;;;;;7.53;2.85;;;14.40;99.90;;;;;;12794916;23;20234;-88
2023/10/07 20:28:36;;;;;;;4.95;2.65;;;14.30;99.90;;;;;;12767998;23;20557;-88
2023/10/07 20:33:39;;;;;;;6.25;3.42;;;14.50;99.90;;;;;;12794491;23;20646;-88
2023/10/07 20:38:43;;;;;;;6.85;4.85;;;14.50;99.90;;;;;;12767153;23;20622;-88
2023/10/07 20:43:47;;;;;;;6.43;3.92;;;14.50;99.90;;;;;;12794291;23;20188;-88
2023/10/07 20:48:50;;;;;;;3.80;2.30;;;14.50;99.90;;;;;;12793028;23;20231;-88
2023/10/07 20:53:53;;;;;;;4.10;3.00;;;14.30;99.90;;;;;;12811898;23;20175;-88
2023/10/07 20:58:55;;;;;;;3.85;2.60;;;14.80;99.90;;;;;;12793037;23;20222;-88
2023/10/07 21:03:58;;;;;;;3.30;2.40;;;14.60;99.90;;;;;;12793636;23;20463;-88
2023/10/07 21:09:01;;;;;;;3.80;2.25;;;15.30;99.90;;;;;;12793679;23;20642;-88
2023/10/07 21:14:04;;;;;;;4.25;2.88;;;15.20;99.90;;;;;;12790962;23;20565;-88
2023/10/07 21:19:07;;;;;;;4.43;1.95;;;15.30;99.90;;;;;;12791400;23;20199;-88
2023/10/07 21:24:09;;;;;;;3.10;1.90;;;15.00;99.90;;;;;;12790656;23;20219;-88
2023/10/07 21:29:12;;;;;;;6.55;2.55;;;15.30;99.90;;;;;;12766643;23;20176;-88
2023/10/07 21:34:16;;;;;;;4.07;2.00;;;15.80;99.90;;;;;;12792939;23;20250;-88
2023/10/07 21:39:19;;;;;;;3.00;1.67;;;15.50;99.90;;;;;;12766935;23;20226;-88
2023/10/07 21:44:22;;;;;;;4.15;1.70;;;15.50;99.90;;;;;;12766640;23;20524;-88
2023/10/07 21:49:25;;;;;;;5.55;2.17;;;15.50;99.90;;;;;;12765142;23;20513;-88
2023/10/07 21:54:27;;;;;;;3.88;1.55;;;15.70;99.90;;;;;;12792700;23;20486;-88
2023/10/07 21:59:30;;;;;;;4.07;1.90;;;15.80;99.90;;;;;;12765201;23;20180;-89
2023/10/07 22:04:33;;;;;;;3.80;2.08;;;16.30;99.90;;;;;;12791617;23;20195;-88
2023/10/07 22:09:36;;;;;;;2.35;1.98;;;16.40;99.90;;;;;;12792204;23;20164;-88
2023/10/07 22:14:39;;;;;;;3.45;2.15;;;16.20;99.90;;;;;;12791762;23;20184;-88
2023/10/07 22:19:41;;;;;;;2.90;1.90;;;16.00;99.90;;;;;;12765200;23;20180;-88
2023/10/07 22:24:45;;;;;;;4.38;1.83;;;16.00;99.90;;;;;;12810262;23;20246;-89
2023/10/07 22:29:48;;;;;;;3.17;1.85;;;15.60;99.90;;;;;;12764280;23;20176;-88
2023/10/07 22:35:00;;;;;;;4.00;1.60;;;15.60;99.90;;;;;;12765589;23;20235;-88
2023/10/07 22:40:21;;;;;;;2.42;1.60;;;16.00;99.90;;;;;;12765658;23;20514;-88
2023/10/07 22:45:26;;;;;;;2.65;1.73;;;15.40;99.90;;;;;;12764881;23;20200;-88
2023/10/07 22:50:35;;;;;;;3.42;2.13;;;15.10;99.90;;;;;;12791559;23;20549;-89
2023/10/07 22:55:57;;;;;;;6.88;3.13;;;15.00;99.90;;;;;;12764588;23;20246;-89
2023/10/07 23:01:14;;;;;;;2.88;2.20;;;14.80;99.90;;;;;;12805281;23;20176;-88
2023/10/07 23:06:30;;;;;;;6.78;2.50;;;14.70;99.90;;;;;;12790825;23;20226;-88
2023/10/07 23:11:44;;;;;;;3.22;1.88;;;15.30;99.90;;;;;;12765066;23;20171;-87
2023/10/07 23:16:52;;;;;;;8.25;1.88;;;14.90;99.90;;;;;;12763965;23;20183;-88
2023/10/07 23:27:05;;;;;;;3.42;1.50;;;15.10;99.90;;;;;;12789665;23;20859;-89
2023/10/07 23:32:13;;;;;;;3.22;1.45;;;15.00;99.90;;;;;;12789422;23;20203;-89
2023/10/07 23:37:16;;;;;;;4.15;2.15;;;14.90;99.90;;;;;;12790582;23;20230;-89
2023/10/07 23:42:24;;;;;;;2.53;2.00;;;14.90;99.90;;;;;;12790392;23;20175;-88
2023/10/07 23:47:27;;;;;;;5.88;3.05;;;15.20;99.90;;;;;;12789769;23;20538;-88
2023/10/07 23:52:37;;;;;;;4.10;1.90;;;15.10;99.90;;;;;;12790389;23;20529;-90
2023/10/07 23:57:40;;;;;;;4.63;1.85;;;15.00;99.90;;;;;;12763823;23;20179;-89
